Address 0x562d520ad50b63c0bae3278fb332b01bf96eead4 2

 
Ad
Ad
Txn Hash Method
Block
From
To
Value [Txn Fee]
0x438407a0401776ff9a3939ebdd18e084fc9e955b92ac8d4c41adcc299e041948Release220081942021-12-01 9:44:201 day 2 hrs ago0x562d520ad50b63c0bae3278fb332b01bf96eead4OUT 0x8329dc7257d71934a29648c0ace54abbf4e9cbc70 MATIC0.00216054
0xbf30f62c128ae6d6aaa2176b568455184644595793e6c65777398a3f657aeb09Exec Transaction219871512021-11-30 20:53:251 day 15 hrs ago0x562d520ad50b63c0bae3278fb332b01bf96eead4OUT 0x11fe914689525618c322fc9cd76333ba15a932a60 MATIC0.00248709
0x36e1221546db76b4aedaf40f4724b032805831173ff8aefc75d26319b97167a4Exec Transaction219869862021-11-30 20:47:431 day 15 hrs ago0x562d520ad50b63c0bae3278fb332b01bf96eead4OUT 0x11fe914689525618c322fc9cd76333ba15a932a60 MATIC0.0072765
0x782b9dff362a5c3ad8942fec6771fe8983892d7b8de4bde73f873aa0af892b65Transfer217946352021-11-25 19:07:126 days 16 hrs ago0x562d520ad50b63c0bae3278fb332b01bf96eead4OUT Snook: SNK Token0 MATIC0.001041
0x8f40119d9f870fd1798a302c623fa8b86082019d8f8ad0fb9b0fb9fabbd68efeExec Transaction215668592021-11-19 19:56:1412 days 16 hrs ago0x562d520ad50b63c0bae3278fb332b01bf96eead4OUT 0x11fe914689525618c322fc9cd76333ba15a932a60 MATIC0.00363825
0xe27f3cf38161b5e62b9185b98a06a441dde69ec84c3f8e0d6974eb52ed6b4ea0Exec Transaction214778282021-11-17 13:11:1714 days 22 hrs ago0x562d520ad50b63c0bae3278fb332b01bf96eead4OUT 0x11fe914689525618c322fc9cd76333ba15a932a60 MATIC0.00363825
0x3740fceb2802d7f1e6a871117caea44aab8f340b9b69be732289269398b1e933Swap214080882021-11-15 18:06:5016 days 17 hrs ago0x562d520ad50b63c0bae3278fb332b01bf96eead4OUT Metamask: Swap Router25 MATIC0.02798659
0x655f8845241b5df752c0d237efd62fa45f1b68b8395849bcfa3877c05684e6a6Mint2214004612021-11-15 13:22:2316 days 22 hrs ago0x562d520ad50b63c0bae3278fb332b01bf96eead4OUT 0x1d9da4c160a34dda9c808a49d54112a5913c216c0 MATIC0.06335319
0xc7c61f668cceb952597dc0751282b7575148f398f5fa6cabfa99edd5a0520f98Enter Game2212812402021-11-12 11:45:4020 days 15 mins ago0x562d520ad50b63c0bae3278fb332b01bf96eead4OUT 0x1d9da4c160a34dda9c808a49d54112a5913c216c0 MATIC0.004550784
0x2abd1ac80040b687bd589c4f7aa630a25696ace883f76c0b9186ad1b26b4e879Enter Game2212429872021-11-11 10:32:3521 days 1 hr ago0x562d520ad50b63c0bae3278fb332b01bf96eead4OUT 0x1d9da4c160a34dda9c808a49d54112a5913c216c0 MATIC0.399493824
0xe868c7394d7af034d31bf74ba21a734caf51f036882f5df61263473f7d07cebeTransfer212429732021-11-11 10:31:3921 days 1 hr ago0x562d520ad50b63c0bae3278fb332b01bf96eead4OUT0x85f60a2eaf2973506019e43f49534b748142e5b85 MATIC0.00042
0xde107bdd09cc05646e012c0bba1bcdbb3ef077d2e542a4704e21f827db4937b6Enter Game2212429012021-11-11 10:28:1121 days 1 hr ago0x562d520ad50b63c0bae3278fb332b01bf96eead4OUT 0x1d9da4c160a34dda9c808a49d54112a5913c216c0 MATIC0.346916016
0xe24fb86f51f34326b04885b5fefcf3b973c5511ee767275425a94dd4f622fe69Approve212168922021-11-10 17:51:4021 days 18 hrs ago0x562d520ad50b63c0bae3278fb332b01bf96eead4OUT Snook: SNK Token0 MATIC0.00330344
0xdf3de4928933d6d6a18014c7633eb9ac055502e14b88a2877286ab8eeb44021eMint2212168922021-11-10 17:51:4021 days 18 hrs ago0x562d520ad50b63c0bae3278fb332b01bf96eead4OUT 0x1d9da4c160a34dda9c808a49d54112a5913c216c0 MATIC0.01850595
0x6ef55b00bd41e647acb07d220396ea202724dd5c7c6a9f1d9a20c8b010dff5d4Exec Transaction212120902021-11-10 14:51:5921 days 21 hrs ago0x562d520ad50b63c0bae3278fb332b01bf96eead4OUT 0x11fe914689525618c322fc9cd76333ba15a932a60 MATIC0.00218295
0xa6312165dda10c4c23ed61eb1ae3bf113b9c5bd8fad29b8eecc5b6b6cdca97a0Exec Transaction212118432021-11-10 14:43:3321 days 21 hrs ago0x562d520ad50b63c0bae3278fb332b01bf96eead4OUT 0x11fe914689525618c322fc9cd76333ba15a932a60 MATIC0.00218295
0x69dd0a61283280a29aab15ee643500bcf53fcc883297239a4112ffedb577c517Exec Transaction210158512021-11-05 15:10:0126 days 20 hrs ago0x562d520ad50b63c0bae3278fb332b01bf96eead4OUT 0xf8b036e508095188ab8f1f97e086bff83b37e4a20 MATIC0.00351885
0xa71d44d36ade215961455a169705c16825142a27e2307d5baf83db152fd55fcdExec Transaction209370072021-11-03 14:09:2228 days 21 hrs ago0x562d520ad50b63c0bae3278fb332b01bf96eead4OUT 0xbd6f3d4dca25622dff781808ffc1470584ffecee0 MATIC0.0047689
0x46daf994e91d9712652652955418c52d6920364bd5c3868fd3be9f4922408ff1Exec Transaction209370002021-11-03 14:08:4028 days 21 hrs ago0x562d520ad50b63c0bae3278fb332b01bf96eead4OUT 0x47728b776abe7fc5e54a5a7d4d8f79a086bf47be0 MATIC0.0048751
0x707156e49a283a4d00bfb319c60e74d47577ff6dafb6907e6e8b9a67bec8e49fExec Transaction208578062021-11-01 12:51:1630 days 23 hrs ago0x562d520ad50b63c0bae3278fb332b01bf96eead4OUT 0x11fe914689525618c322fc9cd76333ba15a932a60 MATIC0.0027783
0x37f29ccf616fe3674087e5c5e7fbd0521ce71f7facef617645f841f2d9a868d8Exec Transaction208577152021-11-01 12:47:2930 days 23 hrs ago0x562d520ad50b63c0bae3278fb332b01bf96eead4OUT 0x11fe914689525618c322fc9cd76333ba15a932a60 MATIC0.00363825
0x7840abc4e336f14350ea84894e36cf02204b07bc077b199c5703db1650a31e1bExec Transaction208575832021-11-01 12:42:5730 days 23 hrs ago0x562d520ad50b63c0bae3278fb332b01bf96eead4OUT 0x11fe914689525618c322fc9cd76333ba15a932a60 MATIC0.00363825
0x3c41f0db9c472638a34129549590c832e79ed05cf7150beeb4187b088c2ce755Exec Transaction208575262021-11-01 12:40:4130 days 23 hrs ago0x562d520ad50b63c0bae3278fb332b01bf96eead4OUT 0x11fe914689525618c322fc9cd76333ba15a932a60 MATIC0.00363765
0x1f3709e32c60c391f192cb05944110e4b14ada3bd1ddb6cb81687ff832864fc8Exec Transaction208574842021-11-01 12:37:5330 days 23 hrs ago0x562d520ad50b63c0bae3278fb332b01bf96eead4OUT 0x11fe914689525618c322fc9cd76333ba15a932a60 MATIC0.00363765
0x2690fdc3838c1b2e801f9fb30f00d5bf38c49e4de4dab9ddb80b758105c9d592Exec Transaction208574172021-11-01 12:35:0930 days 23 hrs ago0x562d520ad50b63c0bae3278fb332b01bf96eead4OUT 0x11fe914689525618c322fc9cd76333ba15a932a60 MATIC0.00363825
[ Download CSV Export 
Parent Txn Hash Block From To Value
Loading

Contract Name:
0 MATIC

Compiler Version
0

Optimization Enabled:
0 MATIC

Other Settings:
-NA-
Block Transaction Gas Used Reward
Age Block Fee Address BC Fee Address Voting Power Jailed Incoming
Block Uncle Number Difficulty Gas Used Reward
Loading
Loading
Make sure to use the "Vote Down" button for any spammy posts, and the "Vote Up" for interesting conversations.